Mount Sea OneLoft Race
Race Date: 1/28/2011 Longtitude:  
Race Point: Atimonan Latitude:  
Release Time: 7:30AM Distance: 123.047
# of Participants:   # of Birds: 388
Rank Band No. Owner Color Sex Arrive Time Count Speed
1 1020 Jimmy Tee BC H  09:16:34,3 1 1,154.595
2 1415 Mr. & Mrs. Yabut BC C  09:16:37,7 1 1,153.981
3 1541 Jojo Gonzalez/ Mhon Sta Ana BB H  09:16:38,9 1 1,153.765
4 1955 Armin Calubayan & Co. WHT H  09:16:40,6 1 1,153.459
5 2108 PIFERS U.K. PEN H  09:16:40,6 1 1,153.459
6 1846 William Uy BB H  09:16:41,7 1 1,153.260
7 2031 Jojo Pilapil BB H  09:16:42,2 1 1,153.170
8 2813 TEAM COLOMBOPHILE 3 BC H  09:16:42,7 1 1,153.080
9 1408 Saito & Jaime Lim BC H  09:16:44,7 1 1,152.720
10 2037 Camille Erika Zazy BC H  09:16:45,5 1 1,152.576
11 2797 Doc. Jess,Toto & Jojo BBWF H  09:16:46,2 1 1,152.450
12 1845 William Uy BBWF C  09:16:46,3 2 1,152.432
13 2073 PPBC TEAM RB H  09:16:46,3 1 1,152.432
14 1265 Samuel Morales & Jaime Lim BWTF H  09:16:47,5 1 1,152.216
15 2042 NINJA DRED LOFT/ Dennis Padpad BC H  09:16:48,7 1 1,152.001
16 2088 Bunz Estanislao & Arbert Quejado BWTF H  09:16:51,8 1 1,151.444
17 2812 TEAM COLOMBOPHILE 2 BB C  09:16:53,4 1 1,151.156
18 2413 GOLDWING POULTRY SUPPLY RC H  09:16:53,9 1 1,151.067
19 1834 Andrei Santos BLK C  09:16:54,6 1 1,150.941
20 1209 JAZP LOFT / Albert G. San Pedro BB C  09:16:55,8 1 1,150.726
21 926 Managbanag Loft BC H  09:16:56,4 1 1,150.618
22 1152 BURLINGTON BC H  09:16:56,4 1 1,150.618
23 1928 Odie Belarmino BC C  09:16:58,2 1 1,150.296
24 2162 TEAM COLOMBOPHILE 2 BC C  09:16:59,2 2 1,150.116
25 2540 Fhed/Wacky Loft.JG BC H  09:16:59,7 1 1,150.027
26 1879 Kenneth Chua BWTF C  09:17:00,2 1 1,149.937
27 202223 PROGRESSIVE FEEDS SUPPLY BC C  09:17:01,2 1 1,149.758
28 1366 Gil Interno BB H  09:17:01,7 1 1,149.669
29 1606 HANGTIME LOFT/ Don L. Perez DCWT H  09:17:02,5 1 1,149.525
30 1024381 PROGRESSIVE FEEDS SUPPLY BB C  09:17:04,9 2 1,149.096
31 2702 Vicente Ngo BC C  09:17:05,6 1 1,148.971
32 2811 TEAM COLOMBOPHILE 2 BC H  09:17:06,1 3 1,148.881
33 1441 Agua Victoria BB C  09:17:06,8 1 1,148.756
34 2434 TEAM ORPU BBWF H  09:17:08,7 1 1,148.417
35 1149 BURLINGTON DC C  09:17:09,2 2 1,148.327
36 1142 Junior 28 BC H  09:17:09,8 1 1,148.220
37 1022989 Agua Victoria RC H  09:17:10,6 2 1,148.077
38 2710 Vicente Ngo BB H  09:17:11,8 2 1,147.863
39 1144 Jonas Loft BC H  09:17:12,6 1 1,147.721
40 2041 NINJA DRED LOFT/ Dennis Padpad BC C  09:17:13,9 2 1,147.489
41 2067 NINJA DRED LOFT/ Dennis Padpad BB H  09:17:14,4 3 1,147.399
42 1981 Bong Floyd Ferrer BLK C  09:17:15,5 1 1,147.203
43 928 Managbanag Loft BCWF C  09:17:16,4 2 1,147.043
44 2826 TEAM COLOMBOPHILE 1 BB H  09:17:16,9 1 1,146.954
45 1395 Jaime "JIMY" Lim CWTF H  09:17:17,7 1 1,146.811
46 1019 Jimmy Tee BC C  09:17:18,5 2 1,146.669
47 2722 Julio Ang BC H  09:17:20,7 1 1,146.277
48 1776 Armin Calubayan & Co. BCWF C  09:17:21,6 2 1,146.117
49 1033509 PROGRESSIVE FEEDS SUPPLY RC H  09:17:22,3 3 1,145.992
50 1147 Jonas Loft BB C  09:17:23,8 2 1,145.726
51 2685 Manny Go & Co. BKWF H  09:17:25,7 1 1,145.388
52 1372 Camille Erika Zazy BC H  09:17:27,1 2 1,145.139
53 2825 TEAM COLOMBOPHILE 1 BC C  09:17:28,7 2 1,144.855
54 1410 Ryoichi Saito BB C  09:17:29,8 1 1,144.660
55 2117 Lhynne Alcantara BC H  09:17:30,6 1 1,144.518
56 2822 TEAM COLOMBOPHILE 1 BC C  09:17:31,9 3 1,144.287
57 1599 PPSC TEAM BWTF C  09:17:32,0 1 1,144.270
58 1420 Ryoichi Saito BWTF C  09:17:32,5 2 1,144.181
59 1613 UNIFIED PHILIPPINE PIGEON FANCIERS BC C  09:17:33,1 1 1,144.074
60 1779 Marlon Jimenez CWTF H  09:17:34,4 1 1,143.844
61 2568 Rommel Cruz BB C  09:17:35,5 1 1,143.649
62 2637 Richie Allan de Leon BB H  09:17:36,0 1 1,143.561
63 1021 Jimmy Tee BC H  09:17:37,6 3 1,143.277
64 2889 Kenneth Sanez & Lito Trinidad BCWF H  09:17:38,7 1 1,143.083
65 1158 BURLINGTON DC C  09:17:40,3 3 1,142.799
66 1159 BURLINGTON BC C  09:17:41,7 4 1,142.552
67 1610 UNIFIED PHILIPPINE PIGEON FANCIERS GRIZ C  09:17:44,6 2 1,142.039
68 2060 TEAM COLOMBOPHILE 2 BC C  09:17:45,1 4 1,141.951
69 1011367 Jaime Chua DC H  09:17:45,6 1 1,141.863
70 2283 PPSC TEAM DC C  09:17:46,9 2 1,141.633
71 2533 Fhed/Wacky Loft.JG BC C  09:17:47,0 2 1,141.615
72 1060 Eunice Veanna Loft & Paolo Malvar BC H  09:17:47,0 1 1,141.615
73 1666 TEAM NEHPA DC C  09:17:47,6 1 1,141.510
74 2781 Arturo Sia BB H  09:17:49,3 1 1,141.210
75 1459 Arman Hidalgo & Jun Cristobal BB H  09:17:49,3 1 1,141.210
76 1316 TEAM NEHPA BC H  09:17:51,3 2 1,140.857
77 2201 Ferdinand Chua BB C  09:17:52,3 1 1,140.681
78 1708 Julio Ang DC C  09:17:53,2 2 1,140.522
79 2860 TEAM COLOMBOPHILE 4 BB H  09:17:53,7 1 1,140.434
80 1393 Jaime "JIMY" Lim BC H  09:17:54,2 2 1,140.346
81 1661 Lhynne Alcantara BC H  09:17:55,4 2 1,140.135
82 2625 Jorge Lim BB H  09:17:55,4 1 1,140.135
83 2937 Wilfredo L. Samaco BC C  09:17:55,4 1 1,140.135
84 2914 Atty. Joel Huertas RR H  09:18:00,1 1 1,139.308
85 2839 TEAM COLOMBOPHILE 2 BB C  09:18:02,7 5 1,138.851
86 1770 Armin Calubayan & Co. BC C  09:18:04,2 3 1,138.587
87 1330 TEAM NEHPA CWTF H  09:18:17,9 3 1,136.187
88 1766 Armin Calubayan & Co. BC C  09:18:40,5 4 1,132.249
89 2885 Doc. Jess,Toto & Jojo BC C  09:20:04,2 2 1,117.899
90 1368 Kristan Pierre S. Sanchez DC C  09:20:04,6 1 1,117.831
91 2113 Lhynne Alcantara BC C  09:20:08,5 3 1,117.171
92 2701 Vicente Ngo BB H  09:20:15,5 3 1,115.989
93 1967 Lyam and Toto BC H  09:23:05,9 1 1,087.966
94 2055 NINJA DRED LOFT/ Dennis Padpad BC H  09:23:07,9 4 1,087.645
95 2300 Camille Erika Zazy BB H  09:23:08,9 3 1,087.485
96 2096 UNIFIED PHILIPPINE PIGEON FANCIERS BC C  09:23:10,8 3 1,087.181
97 1028999 PROGRESSIVE FEEDS SUPPLY BB H  09:23:14,4 4 1,086.605
98 2848 TEAM COLOMBOPHILE 3 BB C  09:24:46,1 2 1,072.135
99 1260 Samuel Morales DC C  09:24:46,5 1 1,072.072
100 1205 JOERICK LOFT BC H  09:24:47,2 1 1,071.964
101 1169 FANTASTIC LOFT DC C  09:24:47,8 1 1,071.870
102 2835 TEAM COLOMBOPHILE 4 BCWF C  09:24:47,8 2 1,071.870
103 1969 Kenneth Sanez & Lito Trinidad BC C  09:24:49,5 2 1,071.606
104 2064 NINJA DRED LOFT/ Dennis Padpad BBWF C  09:24:50,0 5 1,071.528
105 2901 Richie Allan de Leon BC H  09:24:50,8 2 1,071.403
106 1688 Tiglao Family Loft BB C  09:24:52,1 1 1,071.201
107 1038 Atty. Vladimir Uy BB C  09:24:52,1 1 1,071.201
108 2838 TEAM COLOMBOPHILE 2 BB H  09:24:52,9 6 1,071.077
109 1641 Edgardo D. Pili BWTF H  09:24:54,3 1 1,070.860
110 1448 TEAM NEHPA BB H  09:24:55,5 4 1,070.673
111 1011359 Julio Ang CWTF C  09:24:59,1 3 1,070.115
112 1856 Lyam and Toto RC H  09:24:59,9 2 1,069.990
113 2832 TEAM COLOMBOPHILE 1 BB C  09:25:00,4 4 1,069.913
114 2833 TEAM COLOMBOPHILE 1 BB C  09:25:02,3 5 1,069.618
115 2696 Arman Hidalgo & Jun Cristobal BBWF H  09:25:05,1 2 1,069.185
116 2934 Wilfredo L. Samaco CWTF H  09:25:07,6 2 1,068.798
117 2412 GOLDWING POULTRY SUPPLY BB H  09:25:08,0 2 1,068.736
118 1601 UNIFIED PHILIPPINE PIGEON FANCIERS BB H  09:25:12,3 4 1,068.071
119 1755 Ruben Ryan Tanglao GRIZ H  09:25:16,8 1 1,067.376
120 2709 Vicente Ngo BB H  09:25:17,8 4 1,067.222
121 1906 Jason Malinis RC H  09:25:32,5 1 1,064.959
122 1018 Cham Tien Seng BCWF C  09:25:51,1 1 1,062.109
123 2180 NUTRENA FEEDS SUPPLY BC C  09:25:55,3 1 1,061.468
124 2831 TEAM COLOMBOPHILE 1 BC H  09:25:56,6 6 1,061.269
125 1148 Jonas Loft BB C  09:26:41,6 3 1,054.449
126 1963 Bong Floyd Ferrer BWTF C  09:26:42,7 2 1,054.283
127 2074 Sports & Hobbies Syndicate BB C  09:26:43,3 1 1,054.193
128 2220 Bong Floyd Ferrer BC H  09:26:43,4 3 1,054.178
129 2818 TEAM COLOMBOPHILE 2 DC C  09:26:46,8 7 1,053.666
130 1036 NUTRENA FEEDS SUPPLY BB C  09:26:47,1 2 1,053.621
131 2488 Erick Lim BB C  09:26:47,1 1 1,053.621
132 2528 MCRPA Team BB H  09:27:56,7 1 1,043.258
133 2213 Ferdinand Chua DC H  09:28:00,2 2 1,042.743
134 2891 Chester Lok BBWF H  09:28:02,0 1 1,042.478
135 1107 Sports & Hobbies Syndicate BWTF H  09:28:02,5 2 1,042.404
136 1726 Hardy S. Barzaga RC C  09:28:07,9 1 1,041.610
137 1653 Lhynne Alcantara BC C  09:30:03,2 4 1,024.937
138 1023558 Henry Tan BC C  09:30:27,2 1 1,021.534
139 2271 PPSC TEAM BC H  09:30:30,5 3 1,021.067
140 1048 Eunice Veanna & Jan Vincent So BB H  09:32:41,6 1 1,002.883
141 1923 Odie Belarmino BC C  09:35:15,4 2 982.360
142 101256 Eric Co BB H  09:35:34,9 1 979.818
143 1457 Kerby Chua RC H  09:39:03,0 1 953.484
144 1434 PC SUPPLIES BB H  09:44:14,0 1 916.666
145 1145 Jonas Loft BC C  09:44:14,5 4 916.609
146 1285 BAGWIS- A. Ramos & Ed Pili BB H  09:44:15,1 1 916.541
147 1950 Marlon Jimenez BC C  09:44:16,7 2 916.359
148 1314 TEAM NEHPA BC C  09:44:17,8 5 916.234
149 2518 143 Bicol Express BB C  09:44:20,3 1 915.949
150 1175 FANTASTIC LOFT BB C  09:44:25,8 2 915.325
151 1033399 Kenneth Chua PEN H  09:45:41,9 2 906.770
152 1544 Jojo Gonzalez/ Mhon Sta Ana BC C  09:47:56,0 2 892.077
153 2539 Fhed/Wacky Loft.JG BB H  09:48:56,5 3 885.603
154 2546 Teodore Lim Chiong Sy BB C  09:48:57,2 1 885.528
155 1699 Robert Bareo DCWF C  09:49:05,9 1 884.605
156 1266 Samuel Morales & Jaime Lim  BB C  09:49:17,0 1 883.430
157 2277 PPSC TEAM BC H  09:49:20,2 4 883.092
158 1870 Rudy Calderon BC H  09:49:21,4 1 882.965
159 2107 PIFERS U.K. BC C  09:49:21,4 2 882.965
160 1442 Agua Victoria BB C  09:49:22,7 3 882.828
161 2705 Vicente Ngo BC C  09:49:24,1 5 882.680
162 1383 Emmanuel Trimillos BC C  09:49:24,6 1 882.628
163 1808 Kenneth Sanez & Lito Trinidad BLK C  09:49:25,6 3 882.522
164 920 Managbanag Loft BC H  09:49:26,1 3 882.469
165 1267 Samuel Morales & Jaime Lim  BC C  09:49:26,6 2 882.417
166 2544 Teodore Lim Chiong Sy BB H  09:49:32,8 2 881.763
167 1311 TEAM NEHPA GRIZ H  09:49:33,2 6 881.721
168 1801 Kenneth Sanez & Lito Trinidad BLK C  09:49:33,7 4 881.668
169 1382 RJM BC C  09:49:35,0 1 881.532
170 2907 Bong Rubino III BC C  09:49:35,5 1 881.479
171 2118 Robert Bareo BB C  09:49:37,7 2 881.247
172 2824 TEAM COLOMBOPHILE 3 BC H  09:49:38,2 3 881.195
173 1392 Jaime "JIMY" Lim BC H  09:49:53,0 3 879.641
174 2190 NUTRENA FEEDS SUPPLY BC C  09:49:58,4 3 879.075
175 2132 Fernan/ Edwin BB C  09:49:58,9 1 879.023
176 1922 Odie Belarmino DC H  09:50:00,7 3 878.835
177 7242 Thadeus Bernardo BLK C  09:50:01,9 1 878.709
178 2806 TEAM COLOMBOPHILE 1 BC C  09:50:02,4 7 878.657
179 2852 TEAM COLOMBOPHILE 2 BC C  09:50:02,9 8 878.605
180 1740 Armin Calubayan & Co. BC H  09:50:08,4 5 878.030
181 2669 Manny Go & Co. BB C  09:50:10,4 2 877.821
182 1851 William Uy BCWF C  09:50:10,9 3 877.769
183 1023552 Henry Tan GRIZ H  09:50:14,0 2 877.446
184 1976 Mr. & Mrs. Yabut BB H  09:50:18,1 2 877.018
185 1296 BAGWIS- A. Ramos & Ed Pili BC C  09:53:41,1 2 856.367
186 2214 Ferdinand Chua RB C  09:53:42,2 3 856.258
187 2940 Wilfredo L. Samaco RC H  09:53:43,3 3 856.149
188 2638 Richie Allan de Leon BWTF H  09:53:45,1 3 855.970
189 1192 Ely Ronnie Oliver BB C  09:53:45,1 1 855.970
190 2523 Teodore Lim Chiong Sy BB C  09:53:47,4 3 855.742
191 1064 Cham Tien Seng BC C  09:53:49,2 2 855.563
192 1043 Eunice Veanna & Jan Vincent So BB H  09:53:49,7 2 855.514
193 2260 Lino E. Alzona Jr. GRIZ H  09:53:51,4 1 855.345
194 2853 TEAM COLOMBOPHILE 1 BB C  09:53:51,4 8 855.345
195 2827 TEAM COLOMBOPHILE 3 BC C  09:53:51,9 4 855.296
196 1199 Ryan Dominic P. Llagas DC H  09:53:52,7 1 855.216
197 1046 Eunice Veanna Loft BC C  09:53:53,8 1 855.107
198 1504 Atty. Joel Huertas GRIZ H  09:53:56,0 2 854.890
199 2785 Arturo Sia BC H  09:53:56,5 2 854.840
200 1502 Atty. Joel Huertas BC H  09:53:56,5 3 854.840
201 2082 Bunz Estanislao & Arbert Quejado BC C  09:53:58,8 2 854.613
202 2548 143 Bicol Express CWTF C  09:53:59,5 2 854.543
203 2856 TEAM COLOMBOPHILE 3 BB C  09:54:00,6 5 854.435
204 1191 Ely Ronnie Oliver BB C  09:54:02,9 2 854.207
205 1104 USSC TEAM FLYERS BB H  09:54:05,4 1 853.960
206 2931 Wilfredo L. Samaco BB C  09:54:10,3 4 853.476
207 2287 PPSC TEAM BB H  09:54:11,0 5 853.407
208 1213 JAZP LOFT / Albert G. San Pedro BB C  09:54:38,2 2 850.733
209 1907 Kenneth Sanez & Lito Trinidad BC C  09:54:39,6 5 850.595
210 1386 RJM BWTF H  09:54:42,5 2 850.311
211 2836 TEAM COLOMBOPHILE 3 BC C  09:54:54,8 6 849.108
212 1782 Armin Calubayan & Co. BC H  09:55:38,0 6 844.910
213 10080 Ferdinand Chua BC H  09:55:40,3 4 844.688
214 2886 Doc. Jess,Toto & Jojo BC C  09:55:42,5 3 844.476
215 1055 Eunice Veanna Loft BC H  09:58:42,6 2 827.430
216 1847 William Uy BB H  09:59:54,4 4 820.825
217 1510 Atty. Joel Huertas DC C  10:03:28,5 4 801.740
218 2522 143 Bicol Express BBWF H  10:04:40,2 3 795.546
219 2846 TEAM COLOMBOPHILE 3 BB H  10:06:48,0 7 784.739
220 2550 Teodore Lim Chiong Sy BC H  10:06:49,8 4 784.589
221 2698 Arman Hidalgo & Jun Cristobal BC C  10:06:50,8 3 784.506
222 1555 Eric Co BC C  10:06:51,1 2 784.481
223 1900 Kenneth Chua BC H  10:06:51,9 3 784.414
224 1853 Lyam and Toto BC H  10:06:52,8 3 784.339
225 1163 BURLINGTON BC C  10:06:55,1 5 784.147
226 1535 Jojo Cruz - BURJ LOFT BC H  10:06:55,1 1 784.147
227 2859 TEAM COLOMBOPHILE 4 CWTF H  10:06:56,4 3 784.039
228 2633 Richie Allan de Leon BC H  10:07:03,3 4 783.465
229 1919 Odie Belarmino BC C  10:07:05,4 4 783.291
230 1953 Marlon Jimenez BB H  10:09:16,2 3 772.569
231 1771 Armin Calubayan & Co. GRIZ H  10:13:53,7 7 750.768
232 2841 TEAM COLOMBOPHILE 2 BB C  10:14:30,3 9 747.984
233 1341 TEAM NEHPA BC C  10:15:47,4 7 742.187
234 2512 143 TCS Cebu BB H  10:15:50,0 1 741.993
235 1660 Lhynne Alcantara DC C  10:15:53,9 5 741.702
236 1023553 Henry Tan BC C  10:17:59,3 3 732.474